METAR Formatted Surface Weather Observation
Issued by NWS Pago Pago

Home | Current Version | Previous Version | Text Only | Print | Product List | Glossary On
Versions: 1 2 3 4 5 6 7 8 9 10 11 12 13 14 15 16 17 18 19 20 21 22 23 24 25 26 27 28 29 30 31 32 33 34 35 36 37 38 39 40 41 42 43 44 45 46 47 48 49 50
327
SAZS31 NSTU 241802
MTRPPG
METAR NSTU 241750Z 10012KT 12SM FEW018 BKN240 29/28 A2988 RMK SLP120
8/101 T02900279 10290 20282 51012=


USA.gov is the U.S. government's official web portal to all federal, state and local government web resources and services.